Current Weather

Kolda

Kolda, Senegal (GOGK)

Report from: Monday, May 23, 2022 7:00 AM GMT
Current time: Monday, May 23, 2022 7:28 AM GMT

Nearby weather
Weather history
Weather forecast

Temperature23.0°C (73.4°F)
Dew point21.0°C (69.8°F)
Winds 4 kts (2.1 m/s, 4.6 mph) Southwest (220°)
Visibility6.2 mi. (10 km)
Clouds Ceiling: Broken clouds 1,300 ft. (396 m)
Altimeter29.85 in.Hg (1011 mB)
Relative humidity89 %
Density altitude1,342 ft. (409 m)
Flight conditions Marginal Visual Meteorological Conditions
Raw dataGOGK 230700Z 22004KT 9999 BKN013 23/21 Q1011
An error has occurred. This application may no longer respond until reloaded. Reload 🗙